Willoughby Hills, Ohio
Current Conditions -  °F | °C
As of 7:45 AM on Thursday 27 Nov 2014 (Local Time) from KCGF Reporting Station
Light Snow Light Snow  
Wind Chill: 28°   Ceiling: 800
Heat Index: 34°   Visibility: 1mi
Dew Point: 32°   Wind: 7mph
Humidity: 93%   Direction: 320°NW
Pressure: 30.07"   Gusts: NA
Location:  41.6111°N, 81.3789°W
Report Text: KCGF 271245Z 32006KT 1SM -SN BKN008 OVC020 01/00 A3007
Loading
Personal Weather Stations






























Interactive Weather Map New forecast layout! Learn more

10-Day Weather Forecast

Advertisements
Track Severe Weather on mobile